Burgoon, Ohio
Current Conditions -  °F | °C
As of 7:42 AM on Sunday 21 Dec 2014 (Local Time) from KTDZ Reporting Station
Haze Haze  
Wind Chill: 21°   Ceiling: Unl
Heat Index: 21°   Visibility: 2.5mi
Dew Point: 17°   Wind: 0mph
Humidity: 85%   Direction: NA
Pressure: 30.33"   Gusts: NA
Location:  41.27°N, 83.25°W
Report Text: KTDZ 211242Z AUTO 00000KT 2 1/2SM BR FEW065 M06/M08 A3033 RMK AO2 I1000 T10611083 TSNO
Loading
Personal Weather Stations






























Interactive Weather Map New forecast layout! Learn more

10-Day Weather Forecast

Advertisements
Track Severe Weather on mobile